Estación de Sta.Brisila

Ultimos registro cada 15 minutos 45
Estación Fecha / Hora Temperatura Humedad Lluvia Velocidad Dirección Radiación Presion
45 Sta.Brisila 06-05-2026 11:00 14,7 95 0 0,9 355 264 1050,7
44 Sta.Brisila 06-05-2026 10:45 14,7 95 0 0,9 355 264 1050,7
43 Sta.Brisila 06-05-2026 10:30 14,4 95 0 3,6 340 172 1050,4
42 Sta.Brisila 06-05-2026 10:15 14,2 95 0,4 0 277 146 1050,9
41 Sta.Brisila 06-05-2026 10:00 14,2 94 2,8 2,7 333 125 1049,7
40 Sta.Brisila 06-05-2026 09:45 14,2 94 2,8 2,7 333 125 1049,7
39 Sta.Brisila 06-05-2026 09:30 14,2 96 0 2,7 357 30 1049,5
38 Sta.Brisila 06-05-2026 09:15 13,9 97 0 2,7 318 98 1049,8
37 Sta.Brisila 06-05-2026 09:00 10,8 97 0,8 0 124 132 1050
36 Sta.Brisila 06-05-2026 08:45 10,8 97 0,8 0 124 132 1050
35 Sta.Brisila 06-05-2026 08:30 10,4 97 0,2 0,9 60 33 1050
34 Sta.Brisila 06-05-2026 08:15 10,1 97 0 0,4 296 11 1050,2
33 Sta.Brisila 06-05-2026 08:00 9,7 97 0,4 0,9 122 0 1050
32 Sta.Brisila 06-05-2026 07:45 9,7 97 0,4 0,9 122 0 1050
31 Sta.Brisila 06-05-2026 07:30 9,6 97 0,2 0,4 46 0 1049,9
30 Sta.Brisila 06-05-2026 07:15 9,3 97 0 0 258 0 1049,8
29 Sta.Brisila 06-05-2026 07:00 9,2 96 0 0 281 0 1049
28 Sta.Brisila 06-05-2026 06:45 9,2 96 0 0 281 0 1049
27 Sta.Brisila 06-05-2026 06:30 9,1 96 0 0,9 256 0 1049
26 Sta.Brisila 06-05-2026 06:15 9,1 96 0 0 100 0 1048,7
25 Sta.Brisila 06-05-2026 06:00 8,9 96 0 0 351 0 1048,8
24 Sta.Brisila 06-05-2026 05:45 8,9 96 0 0 351 0 1048,8
23 Sta.Brisila 06-05-2026 05:30 9,1 96 0,2 0,4 277 0 1048,8
22 Sta.Brisila 06-05-2026 05:15 9,2 96 0 0 132 0 1048,4
21 Sta.Brisila 06-05-2026 05:00 9,3 96 0 0,9 254 0 1048,6
20 Sta.Brisila 06-05-2026 04:45 9,3 96 0 0,9 254 0 1048,6
19 Sta.Brisila 06-05-2026 04:30 9,5 96 0 0 97 0 1048,3
18 Sta.Brisila 06-05-2026 04:15 9,7 96 0 0,9 138 0 1048,3
17 Sta.Brisila 06-05-2026 04:00 9,9 96 0 0,4 74 0 1048,6
16 Sta.Brisila 06-05-2026 03:45 9,9 96 0 0,4 74 0 1048,6
15 Sta.Brisila 06-05-2026 03:30 9,9 96 0 0 122 0 1048,9
14 Sta.Brisila 06-05-2026 03:15 10 95 0 0 255 0 1049
13 Sta.Brisila 06-05-2026 03:00 10,6 96 0 0 266 0 1049
12 Sta.Brisila 06-05-2026 02:45 10,6 96 0 0 266 0 1049
11 Sta.Brisila 06-05-2026 02:30 10,8 96 0 0 254 0 1049,1
10 Sta.Brisila 06-05-2026 02:15 10,7 96 0 0 254 0 1049
9 Sta.Brisila 06-05-2026 02:00 10,6 95 0 0 171 0 1048,8
8 Sta.Brisila 06-05-2026 01:45 10,6 95 0 0 171 0 1048,8
7 Sta.Brisila 06-05-2026 01:30 10,9 95 0 0,9 100 0 1048,6
6 Sta.Brisila 06-05-2026 01:15 11,1 95 0 1,3 71 0 1048,7
5 Sta.Brisila 06-05-2026 01:00 10,4 95 0 0 68 0 1049,2
4 Sta.Brisila 06-05-2026 00:45 10,4 95 0 0 68 0 1049,2
3 Sta.Brisila 06-05-2026 00:30 9,8 94 0 0 246 0 1049,4
2 Sta.Brisila 06-05-2026 00:15 9,8 94 0 0 246 0 1049,5
1 Sta.Brisila 06-05-2026 00:00 10,5 93 0 0 246 0 1049,4